createdAt,value
2018-05-25T00:02:25.836Z,97165.70
2018-05-25T00:04:51.699Z,97165.42
2018-05-25T00:07:17.553Z,97161.55
2018-05-25T00:09:43.417Z,97164.20
2018-05-25T00:12:09.297Z,97163.70
2018-05-25T00:14:35.187Z,97162.93
2018-05-25T00:17:01.105Z,97162.42
2018-05-25T00:19:26.959Z,97162.66
2018-05-25T00:21:52.829Z,97172.69
2018-05-25T00:24:18.690Z,97163.00
2018-05-25T00:26:44.573Z,97161.66
2018-05-25T00:29:10.416Z,97165.48
2018-05-25T00:31:36.274Z,97169.80
2018-05-25T00:34:02.129Z,97164.15
2018-05-25T00:36:28.012Z,97164.70
2018-05-25T00:38:53.880Z,97165.07
2018-05-25T00:41:19.710Z,97165.92
2018-05-25T00:43:45.586Z,97160.54
2018-05-25T00:46:11.457Z,97168.81
2018-05-25T00:48:37.334Z,97171.41
2018-05-25T00:51:03.194Z,97166.14
2018-05-25T00:53:29.074Z,97166.19
2018-05-25T00:55:54.964Z,97169.45
2018-05-25T00:58:20.821Z,97166.35
2018-05-25T01:00:46.645Z,97168.52
2018-05-25T01:03:12.520Z,97168.98
2018-05-25T01:05:38.376Z,97162.78
2018-05-25T01:08:04.258Z,97163.59
2018-05-25T01:10:30.164Z,97164.03
2018-05-25T01:12:56.016Z,97158.48
2018-05-25T01:15:21.882Z,97159.88
2018-05-25T01:17:47.726Z,97158.27
2018-05-25T01:20:13.592Z,97158.41
2018-05-25T01:22:39.474Z,97150.81
2018-05-25T01:25:05.397Z,97157.05
2018-05-25T01:27:31.288Z,97155.01
2018-05-25T01:29:57.169Z,97154.16
2018-05-25T01:32:23.006Z,97153.12
2018-05-25T01:34:48.863Z,97152.19
2018-05-25T01:37:14.744Z,97149.63
2018-05-25T01:39:40.645Z,97159.77
2018-05-25T01:42:06.477Z,97154.11
2018-05-25T01:44:32.360Z,97147.32
2018-05-25T01:46:58.241Z,97150.83
2018-05-25T01:49:24.121Z,97147.83
2018-05-25T01:51:49.993Z,97146.20
2018-05-25T01:54:15.862Z,97140.80
2018-05-25T01:56:41.761Z,97139.27
2018-05-25T01:59:07.611Z,97138.78
2018-05-25T02:01:33.477Z,97141.99
2018-05-25T02:03:59.350Z,97147.70
2018-05-25T02:06:25.230Z,97145.41
2018-05-25T02:08:51.073Z,97147.62
2018-05-25T02:11:17.018Z,97150.78
2018-05-25T02:13:42.849Z,97152.30
2018-05-25T02:16:08.729Z,97142.53
2018-05-25T02:18:34.621Z,97127.73
2018-05-25T02:21:00.469Z,97137.38
2018-05-25T02:23:26.327Z,97144.95
2018-05-25T02:25:52.169Z,97144.16
2018-05-25T02:28:18.027Z,97139.73
2018-05-25T02:30:43.903Z,97146.04
2018-05-25T02:33:09.778Z,97143.00
2018-05-25T02:35:35.649Z,97147.85
2018-05-25T02:38:01.519Z,97138.98
2018-05-25T02:40:27.364Z,97140.97
2018-05-25T02:42:53.214Z,97144.84
2018-05-25T02:45:19.088Z,97145.34
2018-05-25T02:47:44.965Z,97136.17
2018-05-25T02:50:10.837Z,97148.25
2018-05-25T02:52:36.699Z,97146.06
2018-05-25T02:55:02.636Z,97142.62
2018-05-25T02:57:28.525Z,97146.44
2018-05-25T02:59:54.381Z,97157.37
2018-05-25T03:02:20.236Z,97145.56
2018-05-25T03:04:46.105Z,97150.91
2018-05-25T03:07:11.982Z,97147.83
2018-05-25T03:09:37.867Z,97153.84
2018-05-25T03:12:03.762Z,97152.00
2018-05-25T03:14:29.615Z,97154.75
2018-05-25T03:16:55.477Z,97155.84
2018-05-25T03:19:21.333Z,97157.77
2018-05-25T03:21:47.213Z,97152.36
2018-05-25T03:24:13.067Z,97157.37
2018-05-25T03:26:38.963Z,97159.67
2018-05-25T03:29:04.829Z,97151.94
2018-05-25T03:31:30.712Z,97151.42
2018-05-25T03:33:56.588Z,97157.51
2018-05-25T03:36:22.483Z,97149.77
2018-05-25T03:38:48.329Z,97156.88
2018-05-25T03:41:14.181Z,97152.68
2018-05-25T03:43:40.023Z,97156.20
2018-05-25T03:46:05.866Z,97146.50
2018-05-25T03:48:31.709Z,97144.20
2018-05-25T03:50:57.556Z,97133.63
2018-05-25T03:53:23.389Z,97137.60
2018-05-25T03:55:49.224Z,97139.34
2018-05-25T03:58:15.089Z,97145.14
2018-05-25T04:00:53.270Z,97150.19
2018-05-25T04:03:19.138Z,97146.69
2018-05-25T04:05:44.964Z,97146.17
2018-05-25T04:08:10.808Z,97150.70
2018-05-25T04:10:36.637Z,97156.38
2018-05-25T04:13:02.513Z,97157.37
2018-05-25T04:15:28.400Z,97165.07
2018-05-25T04:17:54.236Z,97172.34
2018-05-25T04:20:20.077Z,97169.67
2018-05-25T04:22:45.924Z,97177.78
2018-05-25T04:25:11.757Z,97175.50
2018-05-25T04:27:37.604Z,97171.75
2018-05-25T04:30:03.476Z,97173.30
2018-05-25T04:32:29.310Z,97174.11
2018-05-25T04:34:55.173Z,97171.27
2018-05-25T04:37:21.020Z,97177.51
2018-05-25T04:39:46.827Z,97178.84
2018-05-25T04:42:12.652Z,97171.95
2018-05-25T04:44:38.493Z,97174.53
2018-05-25T04:47:04.329Z,97171.39
2018-05-25T04:49:30.173Z,97172.27
2018-05-25T04:51:56.037Z,97169.42
2018-05-25T04:54:21.892Z,97174.50
2018-05-25T04:56:47.728Z,97170.77
2018-05-25T04:59:13.558Z,97170.91
2018-05-25T05:01:39.416Z,97179.12
2018-05-25T05:04:05.261Z,97177.69
2018-05-25T05:06:31.134Z,97179.39
2018-05-25T05:08:56.964Z,97168.61
2018-05-25T05:11:22.809Z,97172.55
2018-05-25T05:13:48.652Z,97177.77
2018-05-25T05:16:14.497Z,97176.52
2018-05-25T05:18:40.384Z,97177.91
2018-05-25T05:21:06.237Z,97166.13
2018-05-25T05:23:32.097Z,97176.49
2018-05-25T05:25:57.922Z,97175.35
2018-05-25T05:28:23.775Z,97171.00
2018-05-25T05:30:49.598Z,97174.48
2018-05-25T05:33:15.436Z,97178.77
2018-05-25T05:35:41.281Z,97180.13
2018-05-25T05:38:07.132Z,97180.77
2018-05-25T05:40:32.965Z,97182.47
2018-05-25T05:42:58.792Z,97175.00
2018-05-25T05:45:24.690Z,97176.05
2018-05-25T05:47:50.534Z,97177.59
2018-05-25T05:50:16.373Z,97183.08
2018-05-25T05:52:42.221Z,97184.10
2018-05-25T05:55:08.050Z,97180.70
2018-05-25T05:57:33.881Z,97173.32
2018-05-25T05:59:59.725Z,97172.59
2018-05-25T06:02:25.584Z,97174.70
2018-05-25T06:04:51.434Z,97175.92
2018-05-25T06:07:17.256Z,97173.11
2018-05-25T06:09:43.132Z,97177.11
2018-05-25T06:12:08.986Z,97171.75
2018-05-25T06:14:34.811Z,97176.30
2018-05-25T06:17:00.761Z,97173.16
2018-05-25T06:19:26.612Z,97177.88
2018-05-25T06:21:52.465Z,97182.09
2018-05-25T06:24:18.282Z,97172.91
2018-05-25T06:26:44.125Z,97179.71
2018-05-25T06:29:09.956Z,97183.98
2018-05-25T06:31:35.826Z,97179.67
2018-05-25T06:34:01.642Z,97179.30
2018-05-25T06:36:27.486Z,97180.80
2018-05-25T06:38:53.304Z,97181.78
2018-05-25T06:41:19.141Z,97177.30
2018-05-25T06:43:45.000Z,97184.44
2018-05-25T06:46:10.850Z,97179.75
2018-05-25T06:48:36.701Z,97182.81
2018-05-25T06:51:02.547Z,97185.56
2018-05-25T06:53:28.377Z,97185.47
2018-05-25T06:55:54.221Z,97194.70
2018-05-25T06:58:20.069Z,97190.34
2018-05-25T07:00:45.933Z,97191.73
2018-05-25T07:03:11.791Z,97196.05
2018-05-25T07:05:37.624Z,97200.98
2018-05-25T07:08:03.482Z,97189.55
2018-05-25T07:10:29.359Z,97201.92
2018-05-25T07:12:55.209Z,97193.80
2018-05-25T07:15:21.138Z,97198.82
2018-05-25T07:17:46.988Z,97202.08
2018-05-25T07:20:12.834Z,97208.16
2018-05-25T07:22:38.667Z,97208.57
2018-05-25T07:25:04.550Z,97202.81
2018-05-25T07:27:30.386Z,97210.21
2018-05-25T07:29:56.215Z,97208.77
2018-05-25T07:32:22.057Z,97207.46
2018-05-25T07:34:47.865Z,97206.87
2018-05-25T07:37:20.461Z,97198.20
2018-05-25T07:39:46.313Z,97201.68
2018-05-25T07:42:12.204Z,97208.28
2018-05-25T07:44:38.073Z,97206.19
2018-05-25T07:47:03.916Z,97206.66
2018-05-25T07:49:29.773Z,97206.53
2018-05-25T07:51:55.624Z,97207.34
2018-05-25T07:54:21.504Z,97202.20
2018-05-25T07:56:47.376Z,97203.37
2018-05-25T07:59:13.231Z,97203.11
2018-05-25T08:01:39.051Z,97204.52
2018-05-25T08:04:04.894Z,97206.31
2018-05-25T08:06:30.738Z,97208.82
2018-05-25T08:08:56.608Z,97203.64
2018-05-25T08:11:22.477Z,97204.63
2018-05-25T08:13:48.349Z,97206.55
2018-05-25T08:16:14.225Z,97208.33
2018-05-25T08:18:40.073Z,97203.27
2018-05-25T08:21:05.899Z,97193.11
2018-05-25T08:23:31.744Z,97200.12
2018-05-25T08:25:57.567Z,97197.02
2018-05-25T08:28:23.433Z,97200.05
2018-05-25T08:30:49.262Z,97192.59
2018-05-25T08:33:15.140Z,97198.44
2018-05-25T08:35:40.996Z,97199.33
2018-05-25T08:38:06.825Z,97197.20
2018-05-25T08:40:32.663Z,97194.62
2018-05-25T08:42:58.512Z,97198.11
2018-05-25T08:45:24.381Z,97197.52
2018-05-25T08:47:50.220Z,97200.66
2018-05-25T08:50:16.067Z,97199.74
2018-05-25T08:52:41.920Z,97202.62
2018-05-25T08:55:07.811Z,97198.08
2018-05-25T08:57:33.605Z,97199.48
2018-05-25T08:59:59.469Z,97200.78
2018-05-25T09:02:25.328Z,97199.03
2018-05-25T09:04:51.391Z,97204.22
2018-05-25T09:07:17.006Z,97203.25
2018-05-25T09:09:42.881Z,97211.73
2018-05-25T09:12:08.712Z,97209.00
2018-05-25T09:14:34.543Z,97210.48
2018-05-25T09:17:00.468Z,97211.18
2018-05-25T09:19:26.321Z,97210.65
2018-05-25T09:21:52.197Z,97210.38
2018-05-25T09:24:18.024Z,97217.44
2018-05-25T09:26:43.869Z,97212.42
2018-05-25T09:29:09.705Z,97212.16
2018-05-25T09:31:35.556Z,97216.58
2018-05-25T09:34:01.388Z,97211.87
2018-05-25T09:36:27.224Z,97209.91
2018-05-25T09:38:53.053Z,97210.53
2018-05-25T09:41:18.902Z,97211.94
2018-05-25T09:43:44.748Z,97213.03
2018-05-25T09:46:10.593Z,97208.79
2018-05-25T09:48:36.421Z,97214.94
2018-05-25T09:51:02.265Z,97203.22
2018-05-25T09:53:28.128Z,97206.19
2018-05-25T09:55:53.952Z,97203.98
2018-05-25T09:58:19.795Z,97195.61
2018-05-25T10:00:45.628Z,97202.50
2018-05-25T10:03:11.508Z,97204.92
2018-05-25T10:05:37.344Z,97203.21
2018-05-25T10:08:03.209Z,97200.96
2018-05-25T10:10:29.032Z,97203.75
2018-05-25T10:12:54.876Z,97194.72
2018-05-25T10:15:20.711Z,97191.30
2018-05-25T10:17:46.549Z,97192.86
2018-05-25T10:20:12.420Z,97190.31
2018-05-25T10:22:38.249Z,97187.23
2018-05-25T10:25:04.157Z,97191.16
2018-05-25T10:27:30.004Z,97181.36
2018-05-25T10:29:55.888Z,97188.00
2018-05-25T10:32:21.769Z,97182.05
2018-05-25T10:34:47.641Z,97180.75
2018-05-25T10:37:13.480Z,97187.58
2018-05-25T10:39:39.345Z,97188.05
2018-05-25T10:42:05.172Z,97186.17
2018-05-25T10:44:31.042Z,97183.25
2018-05-25T10:46:56.847Z,97180.44
2018-05-25T10:49:22.665Z,97181.10
2018-05-25T10:51:48.535Z,97171.96
2018-05-25T10:54:14.397Z,97171.41
2018-05-25T10:56:40.236Z,97168.55
2018-05-25T10:59:06.042Z,97171.52
2018-05-25T11:01:31.904Z,97163.05
2018-05-25T11:03:57.741Z,97166.87
2018-05-25T11:06:23.608Z,97167.97
2018-05-25T11:08:49.440Z,97169.89
2018-05-25T11:11:15.269Z,97166.89
2018-05-25T11:13:41.110Z,97163.13
2018-05-25T11:16:07.022Z,97166.59
2018-05-25T11:18:32.858Z,97166.91
2018-05-25T11:20:58.741Z,97163.47
2018-05-25T11:23:24.557Z,97162.50
2018-05-25T11:25:50.393Z,97154.59
2018-05-25T11:28:16.233Z,97154.52
2018-05-25T11:30:42.053Z,97153.83
2018-05-25T11:33:07.901Z,97151.75
2018-05-25T11:35:33.730Z,97157.37
2018-05-25T11:37:59.580Z,97169.10
2018-05-25T11:40:25.432Z,97166.66
2018-05-25T11:42:51.319Z,97166.26
2018-05-25T11:45:17.174Z,97166.91
2018-05-25T11:47:43.035Z,97161.64
2018-05-25T11:50:08.881Z,97158.44
2018-05-25T11:52:34.689Z,97161.09
2018-05-25T11:55:00.579Z,97157.94
2018-05-25T11:57:26.444Z,97159.67
2018-05-25T11:59:52.289Z,97161.23
2018-05-25T12:02:18.124Z,97153.94
2018-05-25T12:04:43.953Z,97149.86
2018-05-25T12:07:09.796Z,97149.08
2018-05-25T12:09:35.701Z,97145.93
2018-05-25T12:12:01.552Z,97146.78
2018-05-25T12:14:27.377Z,97151.20
2018-05-25T12:16:53.333Z,97144.39
2018-05-25T12:19:19.201Z,97153.46
2018-05-25T12:21:45.049Z,97154.99
2018-05-25T12:24:10.901Z,97152.50
2018-05-25T12:26:36.741Z,97159.80
2018-05-25T12:29:02.597Z,97156.91
2018-05-25T12:31:28.465Z,97157.89
2018-05-25T12:33:54.326Z,97165.19
2018-05-25T12:36:20.139Z,97161.90
2018-05-25T12:38:46.022Z,97157.61
2018-05-25T12:41:11.892Z,97164.81
2018-05-25T12:43:37.733Z,97166.51
2018-05-25T12:46:03.581Z,97164.56
2018-05-25T12:48:29.417Z,97172.98
2018-05-25T12:50:55.248Z,97173.62
2018-05-25T12:53:21.099Z,97167.27
2018-05-25T12:55:46.945Z,97165.75
2018-05-25T12:58:12.784Z,97167.27
2018-05-25T13:00:38.608Z,97177.18
2018-05-25T13:03:04.448Z,97177.85
2018-05-25T13:05:30.309Z,97178.79
2018-05-25T13:07:56.184Z,97175.81
2018-05-25T13:10:22.060Z,97186.08
2018-05-25T13:12:47.912Z,97183.39
2018-05-25T13:15:13.832Z,97189.90
2018-05-25T13:17:39.681Z,97188.19
2018-05-25T13:20:05.541Z,97191.55
2018-05-25T13:22:31.386Z,97193.66
2018-05-25T13:24:57.242Z,97200.47
2018-05-25T13:27:23.085Z,97202.13
2018-05-25T13:29:48.988Z,97201.92
2018-05-25T13:32:14.826Z,97201.20
2018-05-25T13:34:40.653Z,97193.45
2018-05-25T13:37:06.513Z,97201.30
2018-05-25T13:39:32.368Z,97199.23
2018-05-25T13:41:58.223Z,97203.50
2018-05-25T13:44:24.033Z,97202.59
2018-05-25T13:46:49.885Z,97203.52
2018-05-25T13:49:15.726Z,97212.58
2018-05-25T13:51:41.580Z,97204.56
2018-05-25T13:54:07.425Z,97209.48
2018-05-25T13:56:33.271Z,97213.17
2018-05-25T13:58:59.121Z,97211.91
2018-05-25T14:01:24.981Z,97214.00
2018-05-25T14:03:50.824Z,97207.11
2018-05-25T14:06:16.705Z,97210.38
2018-05-25T14:08:42.529Z,97207.59
2018-05-25T14:11:08.381Z,97204.64
2018-05-25T14:13:34.244Z,97199.17
2018-05-25T14:16:00.177Z,97197.98
2018-05-25T14:18:26.056Z,97204.58
2018-05-25T14:20:51.873Z,97202.70
2018-05-25T14:23:17.734Z,97198.59
2018-05-25T14:25:43.591Z,97198.52
2018-05-25T14:28:09.433Z,97193.28
2018-05-25T14:30:35.292Z,97195.13
2018-05-25T14:33:01.161Z,97190.83
2018-05-25T14:35:27.017Z,97181.34
2018-05-25T14:37:52.890Z,97180.33
2018-05-25T14:40:18.753Z,97176.72
2018-05-25T14:42:44.610Z,97175.19
2018-05-25T14:45:10.480Z,97173.23
2018-05-25T14:47:36.318Z,97179.94
2018-05-25T14:50:02.194Z,97179.59
2018-05-25T14:52:28.081Z,97178.39
2018-05-25T14:54:53.947Z,97178.22
2018-05-25T14:57:20.627Z,97183.61
2018-05-25T14:59:46.513Z,97178.06
2018-05-25T15:02:12.399Z,97179.29
2018-05-25T15:04:38.225Z,97185.07
2018-05-25T15:07:04.072Z,97187.87
2018-05-25T15:09:29.944Z,97182.68
2018-05-25T15:11:55.841Z,97183.00
2018-05-25T15:14:21.636Z,97183.83
2018-05-25T15:16:47.544Z,97190.06
2018-05-25T15:19:13.436Z,97184.28
2018-05-25T15:21:39.298Z,97185.33
2018-05-25T15:24:05.335Z,97186.23
2018-05-25T15:26:31.204Z,97179.84
2018-05-25T15:28:57.538Z,97183.13
2018-05-25T15:31:23.781Z,97175.17
2018-05-25T15:33:50.028Z,97173.43
2018-05-25T15:36:16.273Z,97172.28
2018-05-25T15:38:42.403Z,97176.13
2018-05-25T15:41:08.645Z,97168.89
2018-05-25T15:43:34.906Z,97173.03
2018-05-25T15:46:01.142Z,97178.74
2018-05-25T15:48:27.409Z,97171.63
2018-05-25T15:50:53.648Z,97176.22
2018-05-25T15:53:20.997Z,97181.80
2018-05-25T15:55:47.730Z,97172.48
2018-05-25T15:58:13.993Z,97175.56
2018-05-25T16:00:40.156Z,97172.37
2018-05-25T16:03:06.752Z,97174.37
2018-05-25T16:05:33.024Z,97168.70
2018-05-25T16:07:59.293Z,97166.62
2018-05-25T16:10:25.586Z,97171.32
2018-05-25T16:12:51.727Z,97179.86
2018-05-25T16:15:18.078Z,97181.80
2018-05-25T16:17:44.327Z,97177.94
2018-05-25T16:20:10.512Z,97175.19
2018-05-25T16:22:36.714Z,97176.56
2018-05-25T16:25:03.071Z,97161.14
2018-05-25T16:27:29.508Z,97182.55
2018-05-25T16:29:55.509Z,97184.39
2018-05-25T16:32:21.945Z,97185.98
2018-05-25T16:34:48.305Z,97180.75
2018-05-25T16:37:14.568Z,97183.05
2018-05-25T16:39:40.800Z,97179.61
2018-05-25T16:42:07.889Z,97180.94
2018-05-25T16:44:34.132Z,97180.95
2018-05-25T16:47:00.659Z,97179.01
2018-05-25T16:49:26.872Z,97178.90
2018-05-25T16:51:53.147Z,97182.14
2018-05-25T16:54:19.539Z,97180.20
2018-05-25T16:56:46.160Z,97179.61
2018-05-25T16:59:12.118Z,97186.28
2018-05-25T17:01:38.211Z,97185.20
2018-05-25T17:04:04.612Z,97178.34
2018-05-25T17:06:30.904Z,97181.78
2018-05-25T17:08:56.990Z,97178.31
2018-05-25T17:11:23.218Z,97176.59
2018-05-25T17:13:49.514Z,97174.27
2018-05-25T17:16:15.856Z,97170.98
2018-05-25T17:18:42.230Z,97172.11
2018-05-25T17:21:08.508Z,97172.22
2018-05-25T17:23:34.804Z,97172.64
2018-05-25T17:26:01.374Z,97169.33
2018-05-25T17:28:27.962Z,97176.84
2018-05-25T17:30:54.621Z,97173.16
2018-05-25T17:33:20.642Z,97177.48
2018-05-25T17:35:46.584Z,97170.61
2018-05-25T17:38:12.453Z,97178.19
2018-05-25T17:40:38.296Z,97177.11
2018-05-25T17:43:04.224Z,97176.18
2018-05-25T17:45:30.089Z,97170.81
2018-05-25T17:47:55.908Z,97170.61
2018-05-25T17:50:21.781Z,97178.22
2018-05-25T17:52:47.637Z,97177.22
2018-05-25T17:55:13.546Z,97172.74
2018-05-25T17:57:39.493Z,97178.63
2018-05-25T18:00:05.390Z,97184.02
2018-05-25T18:02:31.273Z,97181.33
2018-05-25T18:04:57.124Z,97185.34
2018-05-25T18:07:22.997Z,97190.83
2018-05-25T18:09:48.874Z,97188.75
2018-05-25T18:12:14.764Z,97189.27
2018-05-25T18:14:40.623Z,97187.78
2018-05-25T18:17:06.462Z,97194.44
2018-05-25T18:19:32.337Z,97191.59
2018-05-25T18:21:58.187Z,97195.13
2018-05-25T18:24:24.083Z,97191.86
2018-05-25T18:26:49.939Z,97194.67
2018-05-25T18:29:15.805Z,97200.47
2018-05-25T18:31:41.654Z,97194.59
2018-05-25T18:34:07.513Z,97196.48
2018-05-25T18:36:33.401Z,97196.81
2018-05-25T18:38:59.286Z,97198.47
2018-05-25T18:41:25.129Z,97198.30
2018-05-25T18:43:51.011Z,97191.68
2018-05-25T18:46:16.838Z,97196.19
2018-05-25T18:48:42.665Z,97198.86
2018-05-25T18:51:08.506Z,97201.55
2018-05-25T18:53:34.377Z,97198.72
2018-05-25T18:56:00.238Z,97204.22
2018-05-25T18:58:26.141Z,97207.15
2018-05-25T19:00:52.021Z,97206.72
2018-05-25T19:03:17.880Z,97212.44
2018-05-25T19:05:43.752Z,97208.77
2018-05-25T19:08:09.628Z,97207.48
2018-05-25T19:10:35.477Z,97212.02
2018-05-25T19:13:01.327Z,97210.26
2018-05-25T19:15:27.220Z,97214.16
2018-05-25T19:17:53.084Z,97216.32
2018-05-25T19:20:18.933Z,97215.16
2018-05-25T19:22:44.770Z,97222.39
2018-05-25T19:25:10.606Z,97234.70
2018-05-25T19:27:36.476Z,97237.94
2018-05-25T19:30:02.329Z,97230.04
2018-05-25T19:32:28.242Z,97236.73
2018-05-25T19:34:54.036Z,97243.07
2018-05-25T19:37:19.878Z,97247.45
2018-05-25T19:39:45.737Z,97250.33
2018-05-25T19:42:11.588Z,97250.64
2018-05-25T19:44:37.415Z,97244.42
2018-05-25T19:47:03.254Z,97248.75
2018-05-25T19:49:29.114Z,97257.94
2018-05-25T19:51:54.980Z,97264.14
2018-05-25T19:54:20.836Z,97265.85
2018-05-25T19:56:46.700Z,97270.75
2018-05-25T19:59:12.547Z,97269.20
2018-05-25T20:01:38.400Z,97280.53
2018-05-25T20:04:04.326Z,97277.62
2018-05-25T20:06:30.150Z,97278.91
2018-05-25T20:08:56.057Z,97275.99
2018-05-25T20:11:21.905Z,97280.17
2018-05-25T20:13:47.786Z,97290.84
2018-05-25T20:16:13.819Z,97285.83
2018-05-25T20:18:39.735Z,97282.23
2018-05-25T20:21:12.521Z,97287.30
2018-05-25T20:23:38.402Z,97289.28
2018-05-25T20:26:04.250Z,97292.36
2018-05-25T20:28:30.097Z,97287.05
2018-05-25T20:30:55.978Z,97299.30
2018-05-25T20:33:21.858Z,97295.20
2018-05-25T20:35:47.750Z,97296.11
2018-05-25T20:38:13.593Z,97289.02
2018-05-25T20:40:39.501Z,97292.09
2018-05-25T20:43:05.379Z,97292.33
2018-05-25T20:45:31.260Z,97291.25
2018-05-25T20:47:57.116Z,97293.18
2018-05-25T20:50:22.990Z,97292.45
2018-05-25T20:52:48.882Z,97294.14
2018-05-25T20:55:14.774Z,97290.94
2018-05-25T20:57:40.634Z,97298.64
2018-05-25T21:00:06.525Z,97290.13
2018-05-25T21:02:32.396Z,97301.03
2018-05-25T21:04:58.306Z,97299.22
2018-05-25T21:07:24.221Z,97299.47
2018-05-25T21:09:50.135Z,97295.63
2018-05-25T21:12:16.058Z,97288.05
2018-05-25T21:14:41.896Z,97299.31
2018-05-25T21:17:07.873Z,97295.63
2018-05-25T21:19:33.741Z,97299.91
2018-05-25T21:21:59.630Z,97300.63
2018-05-25T21:24:25.521Z,97297.33
2018-05-25T21:26:51.427Z,97306.42
2018-05-25T21:29:17.290Z,97305.34
2018-05-25T21:31:43.156Z,97304.38
2018-05-25T21:34:09.019Z,97303.22
2018-05-25T21:36:34.904Z,97304.12
2018-05-25T21:39:00.778Z,97297.88
2018-05-25T21:41:26.639Z,97299.48
2018-05-25T21:43:52.554Z,97298.62
2018-05-25T21:46:18.417Z,97295.20
2018-05-25T21:48:44.314Z,97300.59
2018-05-25T21:51:10.178Z,97300.67
2018-05-25T21:53:36.062Z,97301.24
2018-05-25T21:56:01.954Z,97300.73
2018-05-25T21:58:27.841Z,97302.56
2018-05-25T22:00:53.730Z,97302.28
2018-05-25T22:03:19.578Z,97308.81
2018-05-25T22:05:45.476Z,97303.66
2018-05-25T22:08:11.391Z,97310.41
2018-05-25T22:10:37.250Z,97307.44
2018-05-25T22:13:03.102Z,97310.23
2018-05-25T22:15:28.993Z,97304.68
2018-05-25T22:17:54.857Z,97310.58
2018-05-25T22:20:20.733Z,97311.09
2018-05-25T22:22:46.615Z,97315.97
2018-05-25T22:25:12.505Z,97322.42
2018-05-25T22:27:38.369Z,97320.92
2018-05-25T22:30:04.270Z,97315.67
2018-05-25T22:32:30.161Z,97318.08
2018-05-25T22:34:56.061Z,97309.07
2018-05-25T22:37:21.965Z,97315.06
2018-05-25T22:39:47.809Z,97313.98
2018-05-25T22:42:26.038Z,97310.20
2018-05-25T22:45:04.146Z,97307.62
2018-05-25T22:47:42.303Z,97314.03
2018-05-25T22:50:20.422Z,97309.42
2018-05-25T22:52:52.175Z,97306.62
2018-05-25T22:55:18.050Z,97311.26
2018-05-25T22:57:43.894Z,97310.02
2018-05-25T23:00:09.803Z,97305.68
2018-05-25T23:02:35.661Z,97310.50
2018-05-25T23:05:01.529Z,97308.56
2018-05-25T23:07:27.400Z,97316.72
2018-05-25T23:09:53.250Z,97319.89
2018-05-25T23:12:19.109Z,97313.77
2018-05-25T23:14:44.963Z,97314.20
2018-05-25T23:17:10.912Z,97313.77
2018-05-25T23:19:37.031Z,97313.73
2018-05-25T23:22:02.920Z,97314.89
2018-05-25T23:24:28.789Z,97313.77
2018-05-25T23:26:54.662Z,97314.19
2018-05-25T23:29:20.558Z,97307.55
2018-05-25T23:31:46.422Z,97303.02
2018-05-25T23:34:12.307Z,97310.37
2018-05-25T23:36:38.156Z,97315.28
2018-05-25T23:39:04.036Z,97309.91
2018-05-25T23:41:29.905Z,97309.10
2018-05-25T23:43:55.772Z,97308.33
2018-05-25T23:46:21.614Z,97309.86
2018-05-25T23:48:47.465Z,97315.77
2018-05-25T23:51:13.317Z,97317.89
2018-05-25T23:53:39.181Z,97311.06
2018-05-25T23:56:05.078Z,97321.06
2018-05-25T23:58:30.915Z,97319.63
